createdAt,value
2022-12-04T00:00:08.476Z,960.81
2022-12-04T00:01:08.508Z,960.87
2022-12-04T00:02:08.470Z,960.80
2022-12-04T00:03:08.477Z,960.84
2022-12-04T00:04:08.468Z,960.84
2022-12-04T00:05:08.452Z,960.79
2022-12-04T00:06:08.452Z,960.81
2022-12-04T00:07:08.378Z,960.77
2022-12-04T00:08:08.417Z,960.75
2022-12-04T00:09:08.397Z,960.80
2022-12-04T00:10:08.367Z,960.87
2022-12-04T00:11:08.383Z,960.80
2022-12-04T00:12:08.320Z,960.88
2022-12-04T00:13:08.319Z,960.80
2022-12-04T00:14:08.341Z,960.84
2022-12-04T00:15:25.612Z,960.87
2022-12-04T00:16:09.310Z,960.91
2022-12-04T00:17:08.326Z,960.86
2022-12-04T00:18:08.268Z,960.85
2022-12-04T00:19:08.265Z,960.88
2022-12-04T00:20:08.241Z,960.81
2022-12-04T00:21:08.239Z,960.80
2022-12-04T00:22:08.218Z,960.72
2022-12-04T00:23:08.248Z,960.72
2022-12-04T00:24:08.192Z,960.79
2022-12-04T00:25:08.172Z,960.82
2022-12-04T00:26:08.173Z,960.79
2022-12-04T00:27:08.178Z,960.78
2022-12-04T00:28:08.154Z,960.84
2022-12-04T00:29:08.191Z,960.88
2022-12-04T00:30:08.135Z,960.82
2022-12-04T00:31:08.145Z,960.80
2022-12-04T00:32:08.204Z,960.86
2022-12-04T00:33:08.119Z,960.78
2022-12-04T00:34:08.449Z,960.86
2022-12-04T00:35:08.058Z,960.87
2022-12-04T00:36:08.072Z,960.97
2022-12-04T00:37:08.057Z,960.89
2022-12-04T00:38:08.044Z,960.88
2022-12-04T00:39:08.058Z,960.87
2022-12-04T00:40:08.034Z,960.88
2022-12-04T00:41:08.082Z,960.93
2022-12-04T00:42:08.015Z,960.96
2022-12-04T00:43:07.990Z,960.89
2022-12-04T00:44:07.996Z,960.87
2022-12-04T00:45:08.004Z,960.94
2022-12-04T00:46:08.041Z,960.87
2022-12-04T00:47:07.938Z,960.92
2022-12-04T00:48:07.921Z,960.94
2022-12-04T00:49:07.921Z,960.87
2022-12-04T00:50:07.949Z,960.87
2022-12-04T00:51:07.894Z,960.83
2022-12-04T00:52:07.871Z,960.77
2022-12-04T00:53:07.856Z,960.80
2022-12-04T00:54:07.861Z,960.72
2022-12-04T00:55:07.866Z,960.75
2022-12-04T00:56:07.824Z,960.79
2022-12-04T00:57:07.828Z,960.77
2022-12-04T00:58:08.027Z,960.77
2022-12-04T00:59:07.791Z,960.83
2022-12-04T01:00:07.794Z,960.90
2022-12-04T01:01:07.886Z,960.88
2022-12-04T01:02:07.806Z,960.87
2022-12-04T01:03:07.920Z,960.85
2022-12-04T01:04:07.753Z,960.81
2022-12-04T01:05:07.732Z,960.85
2022-12-04T01:06:07.750Z,960.91
2022-12-04T01:07:07.745Z,960.90
2022-12-04T01:08:07.851Z,960.90
2022-12-04T01:09:07.747Z,960.95
2022-12-04T01:10:07.667Z,961.02
2022-12-04T01:11:07.669Z,960.95
2022-12-04T01:12:07.667Z,960.93
2022-12-04T01:13:07.684Z,960.97
2022-12-04T01:14:07.626Z,960.93
2022-12-04T01:15:07.620Z,960.91
2022-12-04T01:16:07.731Z,960.87
2022-12-04T01:17:07.632Z,960.88
2022-12-04T01:18:07.623Z,960.90
2022-12-04T01:19:07.567Z,960.89
2022-12-04T01:20:07.596Z,960.87
2022-12-04T01:21:07.556Z,960.91
2022-12-04T01:22:07.560Z,960.92
2022-12-04T01:23:07.536Z,960.98
2022-12-04T01:24:07.546Z,960.92
2022-12-04T01:25:07.509Z,960.92
2022-12-04T01:26:07.492Z,960.93
2022-12-04T01:27:07.473Z,960.93
2022-12-04T01:28:07.489Z,960.87
2022-12-04T01:29:07.476Z,960.98
2022-12-04T01:30:07.496Z,960.93
2022-12-04T01:31:07.430Z,960.97
2022-12-04T01:32:07.465Z,961.04
2022-12-04T01:33:07.419Z,961.04
2022-12-04T01:34:07.410Z,961.02
2022-12-04T01:35:07.417Z,960.98
2022-12-04T01:36:07.422Z,960.97
2022-12-04T01:37:07.425Z,960.99
2022-12-04T01:38:07.390Z,960.98
2022-12-04T01:39:07.349Z,960.93
2022-12-04T01:40:07.351Z,960.90
2022-12-04T01:41:07.363Z,960.91
2022-12-04T01:42:07.306Z,960.95
2022-12-04T01:43:07.324Z,960.89
2022-12-04T01:44:07.283Z,960.90
2022-12-04T01:45:07.297Z,960.89
2022-12-04T01:46:07.432Z,960.94
2022-12-04T01:47:07.256Z,960.92
2022-12-04T01:48:07.402Z,960.90
2022-12-04T01:49:07.284Z,960.92
2022-12-04T01:50:07.272Z,960.94
2022-12-04T01:51:07.217Z,960.88
2022-12-04T01:52:07.238Z,960.90
2022-12-04T01:53:07.180Z,960.84
2022-12-04T01:54:07.198Z,960.81
2022-12-04T01:55:07.164Z,960.81
2022-12-04T01:56:07.166Z,960.82
2022-12-04T01:57:07.214Z,960.80
2022-12-04T01:58:07.167Z,960.77
2022-12-04T01:59:07.115Z,960.71
2022-12-04T02:00:07.107Z,960.75
2022-12-04T02:01:09.094Z,960.76
2022-12-04T02:02:07.239Z,960.78
2022-12-04T02:03:07.161Z,960.84
2022-12-04T02:04:07.102Z,960.79
2022-12-04T02:05:07.061Z,960.82
2022-12-04T02:06:07.059Z,960.79
2022-12-04T02:07:07.052Z,960.82
2022-12-04T02:08:07.116Z,960.78
2022-12-04T02:09:07.034Z,960.77
2022-12-04T02:10:07.012Z,960.83
2022-12-04T02:11:07.084Z,960.81
2022-12-04T02:12:07.015Z,960.82
2022-12-04T02:13:07.002Z,960.83
2022-12-04T02:14:06.968Z,960.85
2022-12-04T02:15:06.937Z,960.83
2022-12-04T02:16:06.993Z,960.72
2022-12-04T02:17:06.994Z,960.71
2022-12-04T02:18:06.956Z,960.64
2022-12-04T02:19:06.905Z,960.56
2022-12-04T02:20:06.901Z,960.55
2022-12-04T02:21:06.866Z,960.56
2022-12-04T02:22:06.919Z,960.53
2022-12-04T02:23:06.872Z,960.44
2022-12-04T02:24:06.865Z,960.50
2022-12-04T02:25:06.835Z,960.46
2022-12-04T02:26:06.870Z,960.42
2022-12-04T02:27:06.799Z,960.43
2022-12-04T02:28:06.869Z,960.42
2022-12-04T02:29:06.779Z,960.40
2022-12-04T02:30:06.803Z,960.44
2022-12-04T02:31:06.900Z,960.39
2022-12-04T02:32:06.782Z,960.43
2022-12-04T02:33:06.733Z,960.34
2022-12-04T02:34:06.740Z,960.31
2022-12-04T02:35:06.735Z,960.34
2022-12-04T02:36:06.753Z,960.39
2022-12-04T02:37:06.724Z,960.39
2022-12-04T02:38:06.724Z,960.43
2022-12-04T02:39:06.666Z,960.51
2022-12-04T02:40:06.669Z,960.46
2022-12-04T02:41:06.680Z,960.46
2022-12-04T02:42:06.681Z,960.35
2022-12-04T02:43:06.651Z,960.36
2022-12-04T02:44:06.668Z,960.32
2022-12-04T02:45:06.596Z,960.31
2022-12-04T02:46:06.657Z,960.31
2022-12-04T02:47:06.586Z,960.35
2022-12-04T02:48:06.622Z,960.27
2022-12-04T02:49:06.594Z,960.30
2022-12-04T02:50:06.541Z,960.35
2022-12-04T02:51:06.590Z,960.27
2022-12-04T02:52:06.549Z,960.31
2022-12-04T02:53:06.533Z,960.34
2022-12-04T02:54:06.533Z,960.25
2022-12-04T02:55:08.589Z,960.16
2022-12-04T02:56:06.473Z,960.17
2022-12-04T02:57:06.485Z,960.11
2022-12-04T02:58:06.479Z,960.13
2022-12-04T02:59:06.467Z,960.10
2022-12-04T03:00:06.464Z,960.07
2022-12-04T03:01:06.477Z,960.10
2022-12-04T03:02:06.500Z,960.10
2022-12-04T03:03:06.418Z,960.07
2022-12-04T03:04:06.397Z,960.23
2022-12-04T03:05:06.428Z,960.20
2022-12-04T03:06:06.442Z,960.17
2022-12-04T03:07:06.351Z,960.17
2022-12-04T03:08:06.405Z,960.08
2022-12-04T03:09:06.331Z,960.05
2022-12-04T03:10:06.328Z,960.00
2022-12-04T03:11:06.346Z,960.01
2022-12-04T03:12:06.338Z,960.08
2022-12-04T03:13:06.285Z,960.03
2022-12-04T03:14:06.306Z,960.03
2022-12-04T03:15:06.292Z,960.02
2022-12-04T03:16:06.296Z,960.06
2022-12-04T03:17:06.363Z,959.95
2022-12-04T03:18:06.235Z,959.96
2022-12-04T03:19:06.217Z,959.96
2022-12-04T03:20:07.054Z,959.99
2022-12-04T03:21:06.209Z,959.97
2022-12-04T03:22:06.238Z,959.96
2022-12-04T03:23:06.176Z,959.91
2022-12-04T03:24:06.191Z,959.92
2022-12-04T03:25:06.155Z,959.98
2022-12-04T03:26:06.168Z,959.99
2022-12-04T03:27:06.150Z,959.97
2022-12-04T03:28:06.155Z,959.93
2022-12-04T03:29:06.151Z,959.94
2022-12-04T03:30:06.117Z,959.92
2022-12-04T03:31:06.158Z,959.91
2022-12-04T03:32:06.112Z,959.90
2022-12-04T03:33:06.073Z,960.00
2022-12-04T03:34:06.094Z,960.04
2022-12-04T03:35:06.038Z,960.07
2022-12-04T03:36:06.032Z,960.00
2022-12-04T03:37:06.067Z,960.03
2022-12-04T03:38:06.015Z,960.09
2022-12-04T03:39:06.016Z,960.16
2022-12-04T03:40:06.028Z,960.09
2022-12-04T03:41:06.027Z,960.10
2022-12-04T03:42:06.043Z,960.12
2022-12-04T03:43:05.949Z,960.16
2022-12-04T03:44:05.955Z,960.13
2022-12-04T03:45:05.966Z,960.17
2022-12-04T03:46:06.092Z,960.14
2022-12-04T03:47:05.903Z,960.13
2022-12-04T03:48:05.904Z,960.17
2022-12-04T03:49:05.939Z,960.21
2022-12-04T03:50:05.882Z,960.22
2022-12-04T03:51:05.894Z,960.22
2022-12-04T03:52:05.848Z,960.24
2022-12-04T03:53:05.871Z,960.25
2022-12-04T03:54:05.847Z,960.30
2022-12-04T03:55:05.831Z,960.28
2022-12-04T03:56:05.841Z,960.30
2022-12-04T03:57:05.827Z,960.31
2022-12-04T03:58:05.847Z,960.29
2022-12-04T03:59:05.784Z,960.29
2022-12-04T04:00:05.761Z,960.22
2022-12-04T04:01:05.835Z,960.26
2022-12-04T04:02:06.054Z,960.16
2022-12-04T04:03:05.996Z,960.18
2022-12-04T04:04:05.728Z,960.16
2022-12-04T04:05:05.714Z,960.14
2022-12-04T04:06:05.702Z,960.17
2022-12-04T04:07:05.728Z,960.14
2022-12-04T04:08:05.716Z,960.22
2022-12-04T04:09:05.658Z,960.17
2022-12-04T04:10:05.651Z,960.07
2022-12-04T04:11:05.652Z,960.05
2022-12-04T04:12:05.668Z,960.03
2022-12-04T04:13:05.630Z,960.00
2022-12-04T04:14:05.638Z,959.95
2022-12-04T04:15:05.590Z,959.91
2022-12-04T04:16:05.737Z,959.91
2022-12-04T04:17:05.568Z,959.94
2022-12-04T04:18:05.596Z,959.94
2022-12-04T04:19:05.587Z,959.92
2022-12-04T04:20:05.577Z,959.97
2022-12-04T04:21:05.582Z,959.94
2022-12-04T04:22:05.522Z,959.91
2022-12-04T04:23:05.508Z,959.89
2022-12-04T04:24:05.519Z,959.90
2022-12-04T04:25:05.519Z,959.86
2022-12-04T04:26:06.036Z,959.90
2022-12-04T04:27:05.459Z,959.87
2022-12-04T04:28:05.479Z,959.84
2022-12-04T04:29:05.477Z,959.84
2022-12-04T04:30:05.477Z,959.84
2022-12-04T04:31:05.488Z,959.82
2022-12-04T04:32:05.400Z,959.82
2022-12-04T04:33:05.392Z,959.85
2022-12-04T04:34:05.406Z,959.80
2022-12-04T04:35:05.417Z,959.78
2022-12-04T04:36:05.378Z,959.80
2022-12-04T04:37:05.351Z,959.81
2022-12-04T04:38:05.338Z,959.85
2022-12-04T04:39:05.347Z,959.81
2022-12-04T04:40:05.312Z,959.74
2022-12-04T04:41:05.327Z,959.78
2022-12-04T04:42:05.319Z,959.85
2022-12-04T04:43:05.281Z,959.87
2022-12-04T04:44:05.330Z,959.84
2022-12-04T04:45:05.274Z,959.70
2022-12-04T04:46:05.333Z,959.73
2022-12-04T04:47:05.263Z,959.73
2022-12-04T04:48:05.273Z,959.79
2022-12-04T04:49:05.227Z,959.75
2022-12-04T04:50:05.224Z,959.69
2022-12-04T04:51:05.190Z,959.67
2022-12-04T04:52:05.221Z,959.70
2022-12-04T04:53:05.200Z,959.67
2022-12-04T04:54:05.174Z,959.69
2022-12-04T04:55:05.159Z,959.70
2022-12-04T04:56:05.141Z,959.73
2022-12-04T04:57:05.149Z,959.74
2022-12-04T04:58:05.152Z,959.75
2022-12-04T04:59:05.140Z,959.75
2022-12-04T05:00:05.092Z,959.84
2022-12-04T05:01:05.099Z,959.76
2022-12-04T05:02:05.186Z,959.88
2022-12-04T05:03:05.189Z,959.91
2022-12-04T05:04:05.071Z,959.95
2022-12-04T05:05:05.081Z,959.89
2022-12-04T05:06:05.075Z,959.86
2022-12-04T05:07:05.047Z,959.85
2022-12-04T05:08:05.093Z,959.84
2022-12-04T05:09:05.003Z,959.89
2022-12-04T05:10:05.008Z,959.91
2022-12-04T05:11:05.019Z,959.84
2022-12-04T05:12:05.013Z,959.88
2022-12-04T05:13:04.950Z,959.87
2022-12-04T05:14:04.961Z,959.89
2022-12-04T05:15:04.963Z,959.82
2022-12-04T05:16:05.992Z,959.80
2022-12-04T05:17:10.758Z,959.82
2022-12-04T05:18:05.916Z,959.83
2022-12-04T05:19:04.892Z,959.84
2022-12-04T05:20:04.875Z,959.86
2022-12-04T05:21:04.881Z,959.86
2022-12-04T05:22:04.876Z,959.86
2022-12-04T05:23:04.885Z,959.99
2022-12-04T05:24:04.820Z,959.96
2022-12-04T05:25:04.834Z,959.89
2022-12-04T05:26:04.812Z,959.85
2022-12-04T05:27:04.821Z,959.89
2022-12-04T05:28:04.819Z,959.89
2022-12-04T05:29:04.765Z,959.94
2022-12-04T05:30:04.831Z,959.97
2022-12-04T05:31:04.860Z,959.94
2022-12-04T05:32:04.750Z,959.97
2022-12-04T05:33:04.765Z,959.97
2022-12-04T05:34:04.707Z,959.97
2022-12-04T05:35:10.630Z,959.96
2022-12-04T05:36:05.699Z,959.91
2022-12-04T05:37:04.684Z,959.88
2022-12-04T05:38:04.745Z,959.89
2022-12-04T05:39:04.696Z,959.85
2022-12-04T05:40:04.644Z,959.86
2022-12-04T05:41:04.654Z,959.82
2022-12-04T05:42:04.624Z,959.83
2022-12-04T05:43:04.623Z,959.84
2022-12-04T05:44:04.627Z,959.85
2022-12-04T05:45:04.641Z,959.82
2022-12-04T05:46:04.575Z,959.80
2022-12-04T05:47:04.640Z,959.81
2022-12-04T05:48:05.577Z,959.75
2022-12-04T05:49:04.564Z,959.72
2022-12-04T05:50:04.568Z,959.78
2022-12-04T05:51:04.581Z,959.73
2022-12-04T05:52:04.505Z,959.75
2022-12-04T05:53:04.512Z,959.79
2022-12-04T05:54:04.543Z,959.85
2022-12-04T05:55:04.497Z,959.89
2022-12-04T05:56:04.510Z,959.89
2022-12-04T05:57:04.500Z,959.94
2022-12-04T05:58:04.468Z,959.88
2022-12-04T05:59:04.435Z,959.91
2022-12-04T06:00:04.437Z,959.89
2022-12-04T06:01:04.438Z,959.88
2022-12-04T06:02:04.538Z,959.93
2022-12-04T06:03:04.422Z,959.94
2022-12-04T06:04:04.379Z,959.96
2022-12-04T06:05:04.392Z,960.09
2022-12-04T06:06:04.371Z,960.02
2022-12-04T06:07:04.378Z,960.03
2022-12-04T06:08:04.365Z,960.01
2022-12-04T06:09:04.389Z,959.93
2022-12-04T06:10:04.341Z,959.93
2022-12-04T06:11:04.305Z,959.85
2022-12-04T06:12:04.341Z,959.83
2022-12-04T06:13:04.310Z,959.80
2022-12-04T06:14:04.259Z,959.84
2022-12-04T06:15:04.256Z,959.81
2022-12-04T06:16:04.282Z,959.76
2022-12-04T06:17:04.276Z,959.81
2022-12-04T06:18:04.383Z,959.81
2022-12-04T06:19:04.211Z,959.78
2022-12-04T06:20:09.575Z,959.83
2022-12-04T06:21:05.273Z,959.80
2022-12-04T06:22:04.200Z,959.82
2022-12-04T06:23:04.216Z,959.81
2022-12-04T06:24:04.178Z,959.80
2022-12-04T06:25:04.139Z,959.84
2022-12-04T06:26:07.090Z,959.85
2022-12-04T06:27:26.722Z,959.82
2022-12-04T06:28:05.137Z,959.83
2022-12-04T06:29:04.120Z,959.81
2022-12-04T06:30:05.046Z,959.78
2022-12-04T06:31:04.071Z,959.86
2022-12-04T06:32:04.204Z,959.84
2022-12-04T06:33:04.069Z,959.83
2022-12-04T06:34:04.056Z,959.77
2022-12-04T06:35:04.058Z,959.73
2022-12-04T06:36:04.022Z,959.76
2022-12-04T06:37:04.060Z,959.74
2022-12-04T06:38:04.000Z,959.75
2022-12-04T06:39:04.013Z,959.79
2022-12-04T06:40:04.022Z,959.77
2022-12-04T06:41:04.098Z,959.75
2022-12-04T06:42:03.969Z,959.76
2022-12-04T06:43:03.935Z,959.69
2022-12-04T06:44:04.007Z,959.66
2022-12-04T06:45:03.954Z,959.61
2022-12-04T06:46:04.034Z,959.71
2022-12-04T06:47:03.935Z,959.70
2022-12-04T06:48:03.880Z,959.72
2022-12-04T06:49:03.873Z,959.80
2022-12-04T06:50:04.102Z,959.83
2022-12-04T06:51:03.866Z,959.88
2022-12-04T06:52:03.909Z,959.82
2022-12-04T06:53:08.293Z,959.82
2022-12-04T06:54:03.815Z,959.74
2022-12-04T06:55:03.834Z,959.70
2022-12-04T06:56:03.828Z,959.70
2022-12-04T06:57:03.799Z,959.75
2022-12-04T06:58:03.826Z,959.75
2022-12-04T06:59:03.765Z,959.84
2022-12-04T07:00:03.761Z,959.84
2022-12-04T07:01:04.122Z,959.86
2022-12-04T07:02:03.803Z,959.79
2022-12-04T07:03:03.769Z,959.81
2022-12-04T07:04:03.783Z,959.77
2022-12-04T07:05:03.693Z,959.76
2022-12-04T07:06:03.682Z,959.83
2022-12-04T07:07:03.689Z,959.77
2022-12-04T07:08:03.756Z,959.79
2022-12-04T07:09:03.683Z,959.82
2022-12-04T07:10:03.687Z,959.79
2022-12-04T07:11:03.626Z,959.84
2022-12-04T07:12:03.619Z,959.80
2022-12-04T07:13:03.623Z,959.84
2022-12-04T07:14:03.663Z,959.81
2022-12-04T07:15:03.623Z,959.91
2022-12-04T07:16:03.664Z,959.94
2022-12-04T07:17:03.628Z,959.97
2022-12-04T07:18:03.583Z,959.88
2022-12-04T07:19:03.579Z,959.83
2022-12-04T07:20:03.551Z,959.83
2022-12-04T07:21:03.554Z,959.79
2022-12-04T07:22:03.558Z,959.80
2022-12-04T07:23:07.211Z,959.79
2022-12-04T07:24:03.508Z,959.78
2022-12-04T07:25:03.514Z,959.91
2022-12-04T07:26:03.489Z,959.89
2022-12-04T07:27:03.456Z,959.98
2022-12-04T07:28:03.458Z,960.08
2022-12-04T07:29:03.427Z,960.10
2022-12-04T07:30:03.636Z,960.16
2022-12-04T07:31:03.415Z,960.06
2022-12-04T07:32:03.640Z,959.97
2022-12-04T07:33:03.379Z,960.01
2022-12-04T07:34:03.381Z,960.07
2022-12-04T07:35:03.396Z,960.08
2022-12-04T07:36:03.370Z,960.08
2022-12-04T07:37:03.385Z,960.08
2022-12-04T07:38:03.366Z,960.02
2022-12-04T07:39:03.367Z,960.01
2022-12-04T07:40:03.312Z,960.05
2022-12-04T07:41:03.305Z,960.08
2022-12-04T07:42:03.301Z,960.09
2022-12-04T07:43:03.295Z,960.02
2022-12-04T07:44:03.299Z,959.99
2022-12-04T07:45:03.258Z,959.93
2022-12-04T07:46:03.366Z,959.82
2022-12-04T07:47:03.322Z,959.83
2022-12-04T07:48:03.228Z,959.72
2022-12-04T07:49:03.228Z,959.68
2022-12-04T07:50:03.194Z,959.70
2022-12-04T07:51:03.177Z,959.68
2022-12-04T07:52:03.196Z,959.59
2022-12-04T07:53:03.159Z,959.59
2022-12-04T07:54:04.442Z,959.62
2022-12-04T07:55:03.170Z,959.62
2022-12-04T07:56:03.124Z,959.56
2022-12-04T07:57:03.135Z,959.55
2022-12-04T07:58:03.139Z,959.63
2022-12-04T07:59:03.127Z,959.60
2022-12-04T08:00:03.149Z,959.60
2022-12-04T08:01:03.161Z,959.67
2022-12-04T08:02:03.084Z,959.72
2022-12-04T08:03:03.049Z,959.82
2022-12-04T08:04:03.256Z,960.06
2022-12-04T08:05:03.105Z,960.04
2022-12-04T08:06:03.044Z,960.00
2022-12-04T08:07:03.078Z,960.01
2022-12-04T08:08:11.654Z,960.03
2022-12-04T08:09:09.251Z,960.08
2022-12-04T08:10:03.990Z,960.05
2022-12-04T08:11:02.980Z,959.97
2022-12-04T08:12:02.992Z,959.99
2022-12-04T08:13:02.934Z,959.90
2022-12-04T08:14:02.946Z,959.89
2022-12-04T08:15:02.934Z,959.86
2022-12-04T08:16:02.947Z,959.91
2022-12-04T08:17:02.964Z,959.94
2022-12-04T08:18:02.953Z,959.92
2022-12-04T08:19:02.866Z,959.91
2022-12-04T08:20:02.880Z,959.96
2022-12-04T08:21:02.953Z,959.94
2022-12-04T08:22:02.850Z,959.92
2022-12-04T08:23:02.856Z,959.96
2022-12-04T08:24:02.836Z,960.02
2022-12-04T08:25:02.805Z,959.94
2022-12-04T08:26:02.819Z,959.89
2022-12-04T08:27:02.823Z,959.86
2022-12-04T08:28:02.788Z,959.86
2022-12-04T08:29:02.823Z,959.83
2022-12-04T08:30:02.745Z,959.76
2022-12-04T08:31:02.860Z,959.79
2022-12-04T08:32:03.163Z,959.88
2022-12-04T08:33:03.163Z,959.93
2022-12-04T08:34:02.757Z,959.99
2022-12-04T08:35:02.762Z,959.97
2022-12-04T08:36:02.723Z,959.96
2022-12-04T08:37:02.739Z,959.91
2022-12-04T08:38:02.685Z,959.88
2022-12-04T08:39:02.661Z,959.90
2022-12-04T08:40:02.666Z,959.98
2022-12-04T08:41:02.621Z,959.97
2022-12-04T08:42:02.662Z,959.95
2022-12-04T08:43:02.623Z,959.86
2022-12-04T08:44:02.617Z,959.86
2022-12-04T08:45:02.592Z,959.80
2022-12-04T08:46:02.681Z,959.69
2022-12-04T08:47:02.602Z,959.71
2022-12-04T08:48:02.542Z,959.73
2022-12-04T08:49:02.546Z,959.74
2022-12-04T08:50:02.564Z,959.68
2022-12-04T08:51:02.541Z,959.71
2022-12-04T08:52:02.552Z,959.65
2022-12-04T08:53:02.503Z,959.71
2022-12-04T08:54:02.477Z,959.75
2022-12-04T08:55:02.660Z,959.75
2022-12-04T08:56:02.480Z,959.82
2022-12-04T08:57:02.512Z,959.85
2022-12-04T08:58:02.429Z,959.82
2022-12-04T08:59:02.417Z,959.80
2022-12-04T09:00:02.508Z,959.80
2022-12-04T09:01:02.457Z,959.83
2022-12-04T09:02:02.491Z,959.93
2022-12-04T09:03:02.420Z,959.93
2022-12-04T09:04:02.407Z,959.90
2022-12-04T09:05:02.349Z,959.96
2022-12-04T09:06:02.470Z,959.99
2022-12-04T09:07:02.352Z,960.02
2022-12-04T09:08:02.510Z,960.06
2022-12-04T09:09:02.347Z,960.07
2022-12-04T09:10:02.301Z,960.06
2022-12-04T09:11:02.285Z,960.14
2022-12-04T09:12:02.297Z,960.07
2022-12-04T09:13:02.321Z,960.09
2022-12-04T09:14:02.270Z,960.01
2022-12-04T09:15:02.315Z,960.01
2022-12-04T09:16:02.327Z,960.02
2022-12-04T09:17:02.241Z,960.06
2022-12-04T09:18:02.246Z,960.03
2022-12-04T09:19:02.226Z,960.01
2022-12-04T09:20:02.547Z,960.05
2022-12-04T09:21:02.198Z,960.02
2022-12-04T09:22:02.188Z,960.04
2022-12-04T09:23:04.419Z,959.95
2022-12-04T09:24:02.180Z,959.90
2022-12-04T09:25:02.195Z,959.90
2022-12-04T09:26:02.158Z,959.88
2022-12-04T09:27:02.225Z,959.83
2022-12-04T09:28:02.098Z,959.81
2022-12-04T09:29:02.100Z,959.79
2022-12-04T09:30:02.133Z,959.79
2022-12-04T09:31:02.170Z,959.81
2022-12-04T09:32:02.122Z,959.76
2022-12-04T09:33:02.039Z,959.81
2022-12-04T09:34:02.041Z,959.72
2022-12-04T09:35:02.041Z,959.67
2022-12-04T09:36:02.041Z,959.70
2022-12-04T09:37:02.089Z,959.72
2022-12-04T09:38:02.058Z,959.77
2022-12-04T09:39:01.973Z,959.84
2022-12-04T09:40:01.986Z,959.84
2022-12-04T09:41:01.961Z,959.86
2022-12-04T09:42:02.011Z,959.81
2022-12-04T09:43:01.975Z,959.75
2022-12-04T09:44:01.973Z,959.76
2022-12-04T09:45:01.920Z,959.72
2022-12-04T09:46:01.939Z,959.70
2022-12-04T09:47:02.124Z,959.62
2022-12-04T09:48:01.915Z,959.52
2022-12-04T09:49:01.905Z,959.47
2022-12-04T09:50:01.852Z,959.44
2022-12-04T09:51:01.850Z,959.40
2022-12-04T09:52:01.943Z,959.41
2022-12-04T09:53:01.871Z,959.43
2022-12-04T09:54:01.876Z,959.43
2022-12-04T09:55:01.797Z,959.49
2022-12-04T09:56:01.787Z,959.50
2022-12-04T09:57:01.977Z,959.39
2022-12-04T09:58:02.588Z,959.37
2022-12-04T09:59:01.791Z,959.35
2022-12-04T10:00:01.884Z,959.42
2022-12-04T10:01:01.727Z,959.41
2022-12-04T10:02:01.719Z,959.47
2022-12-04T10:03:01.833Z,959.50
2022-12-04T10:04:06.051Z,959.52
2022-12-04T10:05:01.732Z,959.56
2022-12-04T10:06:01.673Z,959.58
2022-12-04T10:07:01.660Z,959.54
2022-12-04T10:08:01.747Z,959.50
2022-12-04T10:09:01.652Z,959.54
2022-12-04T10:10:01.685Z,959.51
2022-12-04T10:11:01.659Z,959.52
2022-12-04T10:12:01.604Z,959.52
2022-12-04T10:13:01.595Z,959.49
2022-12-04T10:14:01.618Z,959.43
2022-12-04T10:15:01.600Z,959.41
2022-12-04T10:16:01.655Z,959.43
2022-12-04T10:17:01.591Z,959.43
2022-12-04T10:18:01.552Z,959.32
2022-12-04T10:19:01.622Z,959.38
2022-12-04T10:20:01.528Z,959.36
2022-12-04T10:21:01.536Z,959.28
2022-12-04T10:22:01.539Z,959.34
2022-12-04T10:23:01.480Z,959.40
2022-12-04T10:24:01.472Z,959.43
2022-12-04T10:25:01.466Z,959.49
2022-12-04T10:26:01.498Z,959.48
2022-12-04T10:27:01.451Z,959.47
2022-12-04T10:28:01.493Z,959.46
2022-12-04T10:29:01.412Z,959.40
2022-12-04T10:30:01.403Z,959.45
2022-12-04T10:31:01.457Z,959.43
2022-12-04T10:32:01.434Z,959.45
2022-12-04T10:33:01.389Z,959.40
2022-12-04T10:34:01.395Z,959.38
2022-12-04T10:35:01.361Z,959.30
2022-12-04T10:36:01.360Z,959.28
2022-12-04T10:37:01.337Z,959.21
2022-12-04T10:38:01.356Z,959.23
2022-12-04T10:39:01.373Z,959.17
2022-12-04T10:40:01.292Z,959.20
2022-12-04T10:41:01.278Z,959.11
2022-12-04T10:42:01.293Z,959.03
2022-12-04T10:43:01.286Z,959.01
2022-12-04T10:44:01.284Z,959.04
2022-12-04T10:45:01.271Z,959.00
2022-12-04T10:46:01.284Z,959.04
2022-12-04T10:47:01.298Z,959.03
2022-12-04T10:48:01.294Z,959.01
2022-12-04T10:49:01.234Z,958.98
2022-12-04T10:50:01.197Z,959.02
2022-12-04T10:51:01.193Z,958.94
2022-12-04T10:52:01.216Z,958.91
2022-12-04T10:53:01.149Z,959.03
2022-12-04T10:54:01.154Z,959.03
2022-12-04T10:55:01.131Z,959.07
2022-12-04T10:56:01.170Z,959.03
2022-12-04T10:57:01.150Z,958.93
2022-12-04T10:58:01.127Z,958.92
2022-12-04T10:59:01.076Z,958.83
2022-12-04T11:00:01.094Z,958.81
2022-12-04T11:01:01.084Z,958.77
2022-12-04T11:02:06.327Z,958.84
2022-12-04T11:03:02.135Z,958.77
2022-12-04T11:04:01.027Z,958.70
2022-12-04T11:05:01.021Z,958.61
2022-12-04T11:06:01.035Z,958.55
2022-12-04T11:07:01.039Z,958.47
2022-12-04T11:08:01.141Z,958.51
2022-12-04T11:09:00.975Z,958.58
2022-12-04T11:10:00.957Z,958.61
2022-12-04T11:11:01.168Z,958.57
2022-12-04T11:12:00.972Z,958.57
2022-12-04T11:13:00.946Z,958.58
2022-12-04T11:14:00.972Z,958.62
2022-12-04T11:15:00.899Z,958.64
2022-12-04T11:16:01.050Z,958.61
2022-12-04T11:17:00.905Z,958.59
2022-12-04T11:18:00.882Z,958.72
2022-12-04T11:19:00.885Z,958.69
2022-12-04T11:20:00.851Z,958.70
2022-12-04T11:21:00.858Z,958.76
2022-12-04T11:22:00.846Z,958.68
2022-12-04T11:23:00.817Z,958.75
2022-12-04T11:24:00.820Z,958.84
2022-12-04T11:25:00.827Z,958.84
2022-12-04T11:26:05.970Z,958.86
2022-12-04T11:27:01.804Z,958.87
2022-12-04T11:28:00.762Z,958.84
2022-12-04T11:29:00.748Z,958.85
2022-12-04T11:30:00.770Z,958.86
2022-12-04T11:31:00.828Z,958.78
2022-12-04T11:32:07.148Z,958.79
2022-12-04T11:33:01.736Z,958.72
2022-12-04T11:34:00.711Z,958.72
2022-12-04T11:35:00.688Z,958.69
2022-12-04T11:36:00.714Z,958.65
2022-12-04T11:37:00.655Z,958.68
2022-12-04T11:38:00.649Z,958.61
2022-12-04T11:39:00.644Z,958.64
2022-12-04T11:40:00.645Z,958.62
2022-12-04T11:41:00.659Z,958.67
2022-12-04T11:42:00.637Z,958.72
2022-12-04T11:43:00.588Z,958.67
2022-12-04T11:44:01.093Z,958.69
2022-12-04T11:45:00.568Z,958.69
2022-12-04T11:46:00.605Z,958.70
2022-12-04T11:47:00.684Z,958.76
2022-12-04T11:48:00.569Z,958.69
2022-12-04T11:49:00.523Z,958.71
2022-12-04T11:50:00.929Z,958.70
2022-12-04T11:51:00.526Z,958.75
2022-12-04T11:52:00.518Z,958.80
2022-12-04T11:53:00.494Z,958.74
2022-12-04T11:54:00.466Z,958.76
2022-12-04T11:55:00.454Z,958.67
2022-12-04T11:56:00.520Z,958.70
2022-12-04T11:57:00.469Z,958.74
2022-12-04T11:58:00.434Z,958.77
2022-12-04T11:59:00.431Z,958.79
2022-12-04T12:00:00.449Z,958.83
2022-12-04T12:01:00.399Z,958.76
2022-12-04T12:02:00.585Z,958.73
2022-12-04T12:03:00.524Z,958.69
2022-12-04T12:04:00.373Z,958.66
2022-12-04T12:05:00.396Z,958.59
2022-12-04T12:06:00.330Z,958.60
2022-12-04T12:07:00.336Z,958.70
2022-12-04T12:08:02.921Z,958.69
2022-12-04T12:09:00.320Z,958.68
2022-12-04T12:10:00.329Z,958.75
2022-12-04T12:11:00.277Z,958.73
2022-12-04T12:12:00.265Z,958.65
2022-12-04T12:13:00.263Z,958.62
2022-12-04T12:14:00.279Z,958.57
2022-12-04T12:15:00.261Z,958.57
2022-12-04T12:16:00.274Z,958.56
2022-12-04T12:17:00.669Z,958.61
2022-12-04T12:18:00.232Z,958.60
2022-12-04T12:19:00.208Z,958.59
2022-12-04T12:20:00.232Z,958.55
2022-12-04T12:21:00.200Z,958.42
2022-12-04T12:22:05.149Z,958.39
2022-12-04T12:23:01.167Z,958.38
2022-12-04T12:24:01.125Z,958.35
2022-12-04T12:25:00.147Z,958.36
2022-12-04T12:26:00.632Z,958.39
2022-12-04T12:27:00.640Z,958.50
2022-12-04T12:28:00.194Z,958.40